Time;durP1;ratioP1;P1;durP2;ratioP2;P2;SDS_P1;SDS_P2;PMS_P1;PMS_P2;Temp;Humidity;BMP_temperature;BMP_pressure;BME280_temperature;BME280_humidity;BME280_pressure;Samples;Min_cycle;Max_cycle;Signal;HPM_P1;HPM_P2
2023/07/12 00:01:46;;;;;;;29.67;11.88;;;26.50;99.90;;;;;;7402177;19;20370;-73
2023/07/12 00:04:12;;;;;;;25.55;9.98;;;26.50;99.90;;;;;;7402654;19;19949;-73
2023/07/12 00:06:39;;;;;;;27.27;9.85;;;26.50;99.90;;;;;;7403823;19;19918;-74
2023/07/12 00:09:10;;;;;;;28.55;10.07;;;26.50;99.90;;;;;;7400248;19;19918;-73
2023/07/12 00:11:36;;;;;;;27.55;10.10;;;26.60;99.90;;;;;;7401650;19;19926;-74
2023/07/12 00:14:01;;;;;;;29.38;11.70;;;26.50;99.90;;;;;;7403977;19;19918;-73
2023/07/12 00:16:36;;;;;;;27.02;12.98;;;26.50;99.90;;;;;;7400878;19;19919;-73
2023/07/12 00:19:02;;;;;;;31.35;11.82;;;26.50;99.90;;;;;;7402548;19;20235;-74
2023/07/12 00:21:30;;;;;;;32.22;12.32;;;26.50;99.90;;;;;;7403152;19;19940;-74
2023/07/12 00:23:57;;;;;;;27.95;12.63;;;26.50;99.90;;;;;;7401047;19;19942;-74
2023/07/12 00:26:25;;;;;;;28.80;12.77;;;26.40;99.90;;;;;;7400778;19;20004;-73
2023/07/12 00:28:52;;;;;;;27.40;11.77;;;26.40;99.90;;;;;;7403710;19;19943;-73
2023/07/12 00:31:18;;;;;;;27.70;11.68;;;26.40;99.90;;;;;;7402194;19;19934;-73
2023/07/12 00:33:44;;;;;;;30.50;11.82;;;26.40;99.90;;;;;;7403484;19;19974;-73
2023/07/12 00:36:18;;;;;;;33.13;12.35;;;26.50;99.90;;;;;;7399982;19;19935;-74
2023/07/12 00:38:44;;;;;;;25.88;11.85;;;26.60;99.90;;;;;;7403404;19;19982;-73
2023/07/12 00:41:33;;;;;;;27.92;12.55;;;26.60;99.90;;;;;;7402561;19;20529;-73
2023/07/12 00:44:10;;;;;;;31.85;12.35;;;26.60;99.90;;;;;;7404191;19;19926;-73
2023/07/12 00:46:42;;;;;;;34.13;12.60;;;26.70;99.90;;;;;;7401033;19;19934;-74
2023/07/12 00:49:11;;;;;;;;;;;26.80;99.90;;;;;;7403245;19;19942;-74
2023/07/12 00:51:58;;;;;;;31.75;11.52;;;26.70;99.90;;;;;;7404257;19;19922;-74
2023/07/12 00:54:27;;;;;;;32.25;11.68;;;26.70;99.90;;;;;;7401635;19;20024;-74
2023/07/12 00:56:53;;;;;;;30.58;11.23;;;26.60;99.90;;;;;;7403145;19;19914;-74
2023/07/12 00:59:26;;;;;;;32.75;12.15;;;26.50;99.90;;;;;;7399274;19;19933;-75
2023/07/12 01:01:56;;;;;;;34.58;11.57;;;26.50;99.90;;;;;;7400384;19;19915;-73
2023/07/12 01:04:26;;;;;;;31.25;10.80;;;26.40;99.90;;;;;;7399578;19;19925;-73
2023/07/12 01:06:52;;;;;;;30.85;12.18;;;26.50;99.90;;;;;;7399721;19;19915;-73
2023/07/12 01:09:19;;;;;;;;;;;26.50;99.90;;;;;;7403483;19;19926;-73
2023/07/12 01:11:46;;;;;;;30.98;13.50;;;26.50;99.90;;;;;;7400516;19;20263;-73
2023/07/12 01:14:14;;;;;;;34.22;12.30;;;26.60;99.90;;;;;;7400983;19;19922;-74
2023/07/12 01:16:43;;;;;;;31.65;13.05;;;26.50;99.90;;;;;;7401496;19;19926;-73
2023/07/12 01:19:09;;;;;;;27.25;13.27;;;26.30;99.90;;;;;;7400195;19;20523;-73
2023/07/12 01:21:37;;;;;;;30.52;11.77;;;26.30;99.90;;;;;;7402510;19;19981;-73
2023/07/12 01:24:03;;;;;;;30.63;10.85;;;26.20;99.90;;;;;;7401442;19;19923;-73
2023/07/12 01:26:41;;;;;;;26.55;10.00;;;26.20;99.90;;;;;;7401218;19;19992;-72
2023/07/12 01:29:08;;;;;;;25.48;10.52;;;26.20;99.90;;;;;;7400412;19;19922;-73
2023/07/12 01:31:35;;;;;;;26.17;10.43;;;26.20;99.90;;;;;;7401453;19;19926;-73
2023/07/12 01:34:01;;;;;;;24.55;10.32;;;26.20;99.90;;;;;;7400528;19;20355;-73
2023/07/12 01:36:28;;;;;;;36.28;11.90;;;26.20;99.90;;;;;;7400614;19;20239;-73
2023/07/12 01:38:56;;;;;;;22.08;10.45;;;26.20;99.90;;;;;;7400435;19;19945;-73
2023/07/12 01:41:22;;;;;;;23.23;10.50;;;26.20;99.90;;;;;;7396957;19;19922;-74
2023/07/12 01:43:48;;;;;;;30.88;10.57;;;26.20;99.90;;;;;;7399847;19;19915;-74
2023/07/12 01:46:14;;;;;;;28.60;10.00;;;26.30;99.90;;;;;;7398442;19;19947;-73
2023/07/12 01:48:40;;;;;;;33.50;10.70;;;26.30;99.90;;;;;;7402345;19;19989;-75
2023/07/12 01:51:06;;;;;;;28.02;10.73;;;26.20;99.90;;;;;;7397488;19;19922;-73
2023/07/12 01:53:35;;;;;;;34.67;12.10;;;26.20;99.90;;;;;;7402279;19;19940;-73
2023/07/12 01:56:03;;;;;;;28.90;11.55;;;26.20;99.90;;;;;;7396931;19;20395;-73
2023/07/12 01:58:29;;;;;;;31.70;11.10;;;26.10;99.90;;;;;;7400705;19;19926;-74
2023/07/12 02:00:55;;;;;;;26.23;10.52;;;26.10;99.90;;;;;;7398399;19;19934;-74
2023/07/12 02:03:21;;;;;;;28.55;10.68;;;26.10;99.90;;;;;;7399079;19;19922;-74
2023/07/12 02:05:47;;;;;;;25.77;10.23;;;26.10;99.90;;;;;;7398907;19;20393;-73
2023/07/12 02:08:13;;;;;;;27.98;10.52;;;26.10;99.90;;;;;;7398609;19;20335;-72
2023/07/12 02:10:41;;;;;;;31.98;11.20;;;26.00;99.90;;;;;;7396539;19;20320;-72
2023/07/12 02:13:07;;;;;;;29.95;10.07;;;26.10;99.90;;;;;;7397622;19;19919;-72
2023/07/12 02:15:33;;;;;;;32.85;10.93;;;26.10;99.90;;;;;;7398508;19;20225;-72
2023/07/12 02:17:59;;;;;;;31.02;10.27;;;26.10;99.90;;;;;;7401094;19;19938;-72
2023/07/12 02:20:25;;;;;;;25.23;9.43;;;26.00;99.90;;;;;;7395389;19;19914;-72
2023/07/12 02:22:52;;;;;;;26.67;9.00;;;25.90;99.90;;;;;;7401265;19;20028;-73
2023/07/12 02:25:20;;;;;;;26.23;8.68;;;26.00;99.90;;;;;;7365455;19;19918;-73
2023/07/12 02:27:47;;;;;;;32.60;10.27;;;26.00;99.90;;;;;;7399471;19;19923;-72
2023/07/12 02:30:16;;;;;;;28.63;9.55;;;26.00;99.90;;;;;;7396950;19;20410;-72
2023/07/12 02:32:43;;;;;;;26.73;9.07;;;26.10;99.90;;;;;;7397992;19;19923;-72
2023/07/12 02:35:09;;;;;;;27.13;8.75;;;26.00;99.90;;;;;;7392378;19;19914;-72
2023/07/12 02:37:35;;;;;;;21.98;8.73;;;26.10;99.90;;;;;;7396539;19;20352;-72
2023/07/12 02:40:03;;;;;;;27.63;9.27;;;26.10;99.90;;;;;;7396065;19;19927;-72
2023/07/12 02:42:29;;;;;;;28.45;8.95;;;26.10;99.90;;;;;;7398914;19;19952;-72
2023/07/12 02:44:55;;;;;;;23.95;9.02;;;26.10;99.90;;;;;;7397728;19;20536;-73
2023/07/12 02:47:20;;;;;;;30.80;9.07;;;26.10;99.90;;;;;;7396169;19;19907;-72
2023/07/12 02:49:46;;;;;;;27.00;8.10;;;26.00;99.90;;;;;;7398709;19;19910;-72
2023/07/12 02:52:12;;;;;;;25.80;8.27;;;26.00;99.90;;;;;;7395279;19;19919;-73
2023/07/12 02:54:38;;;;;;;23.85;8.18;;;26.00;99.90;;;;;;7397021;19;19986;-73
2023/07/12 02:57:04;;;;;;;25.77;8.50;;;26.10;99.90;;;;;;7395697;19;19918;-72
2023/07/12 02:59:31;;;;;;;24.10;8.30;;;26.10;99.90;;;;;;7396505;19;20347;-72
2023/07/12 03:01:57;;;;;;;26.88;8.35;;;26.10;99.90;;;;;;7397546;19;19914;-72
2023/07/12 03:04:23;;;;;;;22.63;7.90;;;26.20;99.90;;;;;;7393373;19;20303;-71
2023/07/12 03:06:49;;;;;;;24.88;7.78;;;26.10;99.90;;;;;;7399263;19;19994;-72
2023/07/12 03:09:15;;;;;;;22.67;7.35;;;26.10;99.90;;;;;;7396254;19;19922;-72
2023/07/12 03:11:44;;;;;;;20.27;8.50;;;26.10;99.90;;;;;;7396091;19;20569;-72
2023/07/12 03:14:10;;;;;;;23.17;8.45;;;26.10;99.90;;;;;;7393584;19;19919;-72
2023/07/12 03:16:36;;;;;;;24.48;7.93;;;26.10;99.90;;;;;;7402474;19;19917;-72
2023/07/12 03:19:02;;;;;;;;;;;26.10;99.90;;;;;;7403424;19;20026;-72
2023/07/12 03:21:28;;;;;;;24.52;8.40;;;26.10;99.90;;;;;;7406045;19;19910;-73
2023/07/12 03:23:53;;;;;;;26.17;10.00;;;26.10;99.90;;;;;;7401380;19;20244;-73
2023/07/12 03:26:19;;;;;;;27.73;8.38;;;26.10;99.90;;;;;;7400596;19;20474;-72
2023/07/12 03:28:45;;;;;;;27.70;7.88;;;26.10;99.90;;;;;;7403176;19;19922;-72
2023/07/12 03:31:15;;;;;;;24.10;8.80;;;26.10;99.90;;;;;;7402460;19;19922;-72
2023/07/12 03:33:42;;;;;;;27.65;9.57;;;26.10;99.90;;;;;;7404410;19;20268;-73
2023/07/12 03:36:08;;;;;;;21.20;8.98;;;26.10;99.90;;;;;;7402635;19;19970;-72
2023/07/12 03:38:35;;;;;;;23.52;8.38;;;26.10;99.90;;;;;;7403639;19;19918;-72
2023/07/12 03:41:03;;;;;;;22.88;8.27;;;26.00;99.90;;;;;;7400049;19;19926;-72
2023/07/12 03:43:30;;;;;;;21.30;8.98;;;26.00;99.90;;;;;;7402446;19;19915;-72
2023/07/12 03:45:55;;;;;;;23.63;8.93;;;26.00;99.90;;;;;;7401588;19;19926;-72
2023/07/12 03:48:23;;;;;;;24.40;10.38;;;25.90;99.90;;;;;;7400162;19;20227;-72
2023/07/12 03:50:50;;;;;;;24.08;8.88;;;25.90;99.90;;;;;;7401586;19;19951;-72
2023/07/12 03:53:18;;;;;;;23.52;9.00;;;25.90;99.90;;;;;;7399462;19;20351;-72
2023/07/12 03:55:46;;;;;;;21.10;8.45;;;25.90;99.90;;;;;;7401899;19;19919;-72
2023/07/12 03:58:19;;;;;;;22.85;8.57;;;25.90;99.90;;;;;;7398915;19;20339;-72
2023/07/12 04:00:47;;;;;;;27.05;9.05;;;25.90;99.90;;;;;;7403252;19;19914;-72
2023/07/12 04:03:13;;;;;;;21.85;9.30;;;25.90;99.90;;;;;;7400723;19;19929;-72
2023/07/12 04:05:41;;;;;;;30.15;9.50;;;25.90;99.90;;;;;;7400471;19;19982;-72
2023/07/12 04:08:08;;;;;;;25.55;9.98;;;25.90;99.90;;;;;;7377423;19;19957;-72
2023/07/12 04:10:34;;;;;;;22.67;9.20;;;26.00;99.90;;;;;;7400373;19;19922;-73
2023/07/12 04:13:00;;;;;;;29.45;10.00;;;25.90;99.90;;;;;;7400554;19;20488;-72
2023/07/12 04:15:26;;;;;;;23.30;8.95;;;25.90;99.90;;;;;;7402034;19;19918;-72
2023/07/12 04:17:51;;;;;;;25.88;9.95;;;26.00;99.90;;;;;;7400217;19;19931;-72
2023/07/12 04:20:17;;;;;;;23.40;8.57;;;26.00;99.90;;;;;;7400573;19;19914;-72
2023/07/12 04:22:47;;;;;;;24.45;9.38;;;25.90;99.90;;;;;;7402285;19;20039;-72
2023/07/12 04:25:14;;;;;;;28.17;10.15;;;26.00;99.90;;;;;;7400288;19;19915;-73
2023/07/12 04:27:41;;;;;;;30.60;9.85;;;26.00;99.90;;;;;;7400537;19;19915;-72
2023/07/12 04:30:11;;;;;;;25.00;8.35;;;26.00;99.90;;;;;;7380643;19;19918;-72
2023/07/12 04:32:37;;;;;;;26.98;10.05;;;26.00;99.90;;;;;;7400029;19;20745;-72
2023/07/12 04:35:03;;;;;;;30.23;9.18;;;25.90;99.90;;;;;;7399925;19;19955;-72
2023/07/12 04:37:30;;;;;;;25.05;9.30;;;26.00;99.90;;;;;;7401047;19;19926;-73
2023/07/12 04:39:56;;;;;;;26.20;9.15;;;25.90;99.90;;;;;;7401097;19;20387;-73
2023/07/12 04:42:23;;;;;;;26.00;9.15;;;25.90;99.90;;;;;;7398711;19;19955;-73
2023/07/12 04:44:49;;;;;;;26.25;9.65;;;25.90;99.90;;;;;;7402444;19;19944;-73
2023/07/12 04:47:17;;;;;;;23.17;9.45;;;25.90;99.90;;;;;;7398858;19;19910;-73
2023/07/12 04:49:43;;;;;;;31.85;9.05;;;25.90;99.90;;;;;;7402191;19;19931;-72
2023/07/12 04:52:12;;;;;;;29.30;10.13;;;25.90;99.90;;;;;;7397578;19;19947;-72
2023/07/12 04:54:40;;;;;;;30.58;10.48;;;26.00;99.90;;;;;;7401131;19;19978;-72
2023/07/12 04:57:06;;;;;;;27.73;9.57;;;26.00;99.90;;;;;;7397997;19;20354;-72
2023/07/12 04:59:33;;;;;;;27.42;9.93;;;26.00;99.90;;;;;;7401486;19;19926;-72
2023/07/12 05:01:58;;;;;;;37.22;11.10;;;26.00;99.90;;;;;;7398579;19;19950;-72
2023/07/12 05:04:24;;;;;;;27.38;11.82;;;26.10;99.90;;;;;;7401062;19;19936;-72
2023/07/12 05:06:51;;;;;;;33.08;12.68;;;26.10;99.90;;;;;;7399918;19;20306;-73
2023/07/12 05:09:18;;;;;;;29.35;10.48;;;26.10;99.90;;;;;;7398325;19;20015;-72
2023/07/12 05:11:43;;;;;;;;;;;26.10;99.90;;;;;;7403117;19;19964;-72
2023/07/12 05:14:09;;;;;;;28.52;9.73;;;26.10;99.90;;;;;;7400936;19;19914;-72
2023/07/12 05:16:35;;;;;;;31.23;10.75;;;26.20;99.90;;;;;;7398523;19;20009;-73
2023/07/12 05:19:01;;;;;;;25.10;10.07;;;26.20;99.90;;;;;;7399576;19;20336;-73
2023/07/12 05:21:27;;;;;;;29.17;10.07;;;26.20;99.90;;;;;;7398996;19;19925;-74
2023/07/12 05:23:54;;;;;;;35.20;11.35;;;26.20;99.90;;;;;;7401619;19;19914;-73
2023/07/12 05:26:20;;;;;;;25.75;10.77;;;26.20;99.90;;;;;;7398833;19;19921;-73
2023/07/12 05:28:46;;;;;;;30.88;9.48;;;26.30;99.90;;;;;;7402166;19;20331;-74
2023/07/12 05:31:13;;;;;;;31.13;10.75;;;26.30;99.90;;;;;;7395660;19;19911;-72
2023/07/12 05:33:42;;;;;;;30.40;9.95;;;26.40;99.90;;;;;;7401397;19;19918;-73
2023/07/12 05:36:08;;;;;;;33.28;9.68;;;26.40;99.90;;;;;;7395671;19;20635;-74
2023/07/12 05:38:34;;;;;;;31.88;10.43;;;26.50;99.90;;;;;;7402761;19;20011;-73
2023/07/12 05:41:00;;;;;;;28.45;10.63;;;26.50;99.90;;;;;;7397341;19;20324;-73
2023/07/12 05:43:26;;;;;;;33.10;11.18;;;26.50;99.90;;;;;;7352433;19;19922;-73
2023/07/12 05:45:52;;;;;;;26.80;10.20;;;26.50;99.90;;;;;;7398735;19;20339;-72
2023/07/12 05:48:19;;;;;;;28.27;10.60;;;26.50;99.90;;;;;;7399316;19;20008;-73
2023/07/12 05:50:50;;;;;;;28.63;11.50;;;26.50;99.90;;;;;;7400110;19;19943;-73
2023/07/12 05:53:16;;;;;;;31.75;10.27;;;26.60;99.90;;;;;;7400552;19;19923;-72
2023/07/12 05:55:42;;;;;;;28.15;9.93;;;26.60;99.90;;;;;;7398659;19;19946;-73
2023/07/12 05:58:08;;;;;;;28.35;10.10;;;26.70;99.90;;;;;;7351874;19;19919;-74
2023/07/12 06:00:33;;;;;;;30.02;10.18;;;26.80;99.90;;;;;;7398550;19;20378;-74
2023/07/12 06:03:00;;;;;;;29.95;11.27;;;26.80;99.90;;;;;;7398438;19;20379;-73
2023/07/12 06:05:26;;;;;;;29.90;10.18;;;26.80;99.90;;;;;;7398584;19;19915;-74
2023/07/12 06:07:52;;;;;;;29.02;10.07;;;26.90;99.90;;;;;;7397889;19;19989;-74
2023/07/12 06:10:18;;;;;;;24.67;10.98;;;27.00;99.90;;;;;;7396939;19;19939;-73
2023/07/12 06:12:44;;;;;;;28.55;10.75;;;27.00;99.90;;;;;;7396819;19;19906;-74
2023/07/12 06:15:11;;;;;;;28.17;10.27;;;27.00;99.90;;;;;;7398216;19;19926;-73
2023/07/12 06:17:36;;;;;;;29.88;11.05;;;27.00;99.90;;;;;;7396860;19;19918;-73
2023/07/12 06:20:03;;;;;;;24.50;9.80;;;26.90;99.90;;;;;;7398503;19;19910;-72
2023/07/12 06:22:29;;;;;;;28.65;9.68;;;26.90;99.90;;;;;;7399152;19;19958;-74
2023/07/12 06:24:55;;;;;;;19.45;8.77;;;26.90;99.90;;;;;;7401611;19;19919;-73
2023/07/12 06:27:21;;;;;;;26.73;9.38;;;26.90;99.90;;;;;;7397495;19;19925;-73
2023/07/12 06:29:47;;;;;;;20.95;8.73;;;26.90;99.90;;;;;;7400527;19;19914;-74
2023/07/12 06:32:13;;;;;;;;;;;26.90;99.90;;;;;;7399750;19;19943;-74
2023/07/12 06:34:39;;;;;;;25.92;10.00;;;26.90;99.90;;;;;;7399473;19;19918;-73
2023/07/12 06:37:06;;;;;;;21.13;9.13;;;27.00;99.90;;;;;;7397106;19;20335;-74
2023/07/12 06:39:31;;;;;;;;;;;27.10;99.90;;;;;;7401878;19;20311;-72
2023/07/12 06:41:57;;;;;;;22.35;7.47;;;27.10;99.90;;;;;;7397973;19;19950;-73
2023/07/12 06:44:23;;;;;;;20.48;7.72;;;27.20;99.90;;;;;;7397405;19;19914;-74
2023/07/12 06:46:49;;;;;;;;;;;27.20;99.90;;;;;;7400385;19;19919;-73
2023/07/12 06:49:15;;;;;;;15.57;8.13;;;27.30;99.90;;;;;;7397746;19;19927;-73
2023/07/12 06:51:46;;;;;;;19.88;7.70;;;27.30;99.30;;;;;;7394573;19;19914;-73
2023/07/12 06:54:13;;;;;;;17.17;6.95;;;27.50;98.70;;;;;;7396726;19;19943;-74
2023/07/12 06:56:39;;;;;;;18.88;6.72;;;27.50;97.60;;;;;;7395871;19;19921;-74
2023/07/12 06:59:05;;;;;;;;;;;27.50;96.70;;;;;;7399342;19;19915;-73
2023/07/12 07:01:31;;;;;;;17.73;6.60;;;27.60;96.20;;;;;;7396713;19;20233;-74
2023/07/12 07:03:56;;;;;;;16.58;6.60;;;27.60;96.00;;;;;;7398507;19;19918;-74
2023/07/12 07:06:24;;;;;;;17.92;6.45;;;27.70;95.90;;;;;;7386703;19;19945;-74
2023/07/12 07:08:51;;;;;;;18.85;6.72;;;27.80;95.40;;;;;;7398164;19;19925;-74
2023/07/12 07:11:19;;;;;;;16.25;6.70;;;27.90;95.00;;;;;;7394544;19;19994;-74
2023/07/12 07:13:47;;;;;;;17.05;6.38;;;28.00;94.50;;;;;;7359977;19;20022;-74
2023/07/12 07:16:13;;;;;;;16.75;6.57;;;28.10;94.20;;;;;;7396509;19;20373;-74
2023/07/12 07:18:39;;;;;;;16.48;6.45;;;28.20;93.80;;;;;;7396858;19;19931;-74
2023/07/12 07:21:05;;;;;;;15.98;6.57;;;28.30;93.30;;;;;;7394696;19;20294;-74
2023/07/12 07:23:31;;;;;;;15.07;6.45;;;28.40;93.10;;;;;;7396279;19;19918;-74
2023/07/12 07:26:04;;;;;;;16.35;7.82;;;28.50;92.80;;;;;;7392956;19;20286;-73
2023/07/12 07:28:31;;;;;;;21.38;6.50;;;28.60;92.50;;;;;;7395172;19;20296;-73
2023/07/12 07:30:57;;;;;;;17.80;6.35;;;28.60;92.20;;;;;;7388624;19;19926;-75
2023/07/12 07:33:24;;;;;;;24.17;6.38;;;28.70;91.90;;;;;;7386733;19;19951;-74
2023/07/12 07:35:50;;;;;;;26.27;16.02;;;28.80;91.60;;;;;;7385040;19;19921;-75
2023/07/12 07:38:16;;;;;;;20.95;7.07;;;28.80;91.30;;;;;;7389173;19;19915;-74
2023/07/12 07:40:42;;;;;;;18.73;6.95;;;28.90;91.00;;;;;;7383926;19;19922;-73
2023/07/12 07:43:10;;;;;;;26.73;7.35;;;29.00;90.80;;;;;;7386832;19;19914;-75
2023/07/12 07:45:36;;;;;;;25.55;7.15;;;29.00;90.60;;;;;;7386651;19;19943;-74
2023/07/12 07:48:01;;;;;;;24.30;7.43;;;29.00;90.20;;;;;;7386839;19;19914;-75
2023/07/12 07:50:28;;;;;;;29.98;7.72;;;29.00;91.10;;;;;;7377788;19;20765;-74
2023/07/12 07:52:53;;;;;;;;;;;28.90;93.20;;;;;;7374814;19;20383;-73
2023/07/12 07:55:21;;;;;;;28.92;8.95;;;28.80;94.30;;;;;;7381895;19;19914;-74
2023/07/12 07:57:47;;;;;;;21.48;8.98;;;28.40;95.20;;;;;;7385377;19;19982;-74
2023/07/12 08:00:14;;;;;;;19.92;7.70;;;28.60;95.70;;;;;;7377814;19;19967;-74
2023/07/12 08:02:42;;;;;;;23.60;9.40;;;28.60;96.10;;;;;;7383552;19;19918;-74
2023/07/12 08:05:09;;;;;;;24.58;8.38;;;28.80;96.00;;;;;;7387057;19;19943;-74
2023/07/12 08:07:43;;;;;;;23.30;9.02;;;28.70;96.30;;;;;;7401596;19;19927;-74
2023/07/12 08:10:13;;;;;;;23.73;8.45;;;28.80;96.50;;;;;;7392557;19;19923;-74
2023/07/12 08:12:39;;;;;;;21.25;9.07;;;28.60;96.70;;;;;;7396563;19;19923;-73
2023/07/12 08:15:05;;;;;;;21.75;8.73;;;28.30;98.00;;;;;;7394464;19;19938;-73
2023/07/12 08:17:31;;;;;;;20.58;8.90;;;28.30;98.00;;;;;;7393874;19;19919;-74
2023/07/12 08:19:58;;;;;;;25.75;9.73;;;28.20;98.70;;;;;;7389362;19;19929;-75
2023/07/12 08:22:25;;;;;;;23.95;9.52;;;28.00;99.20;;;;;;7398555;19;20466;-75
2023/07/12 08:24:51;;;;;;;27.08;9.75;;;27.90;99.80;;;;;;7401775;19;19925;-73
2023/07/12 08:27:17;;;;;;;28.83;15.55;;;27.90;99.80;;;;;;7389704;19;19982;-73
2023/07/12 08:29:44;;;;;;;25.42;12.63;;;27.90;99.90;;;;;;7390292;19;19970;-74
2023/07/12 08:32:11;;;;;;;21.48;8.60;;;28.30;98.90;;;;;;7391146;19;19938;-75
2023/07/12 08:34:39;;;;;;;18.67;7.97;;;28.40;98.10;;;;;;7391977;19;20284;-75
2023/07/12 08:37:06;;;;;;;22.70;8.25;;;28.60;97.60;;;;;;7398483;19;20360;-74
2023/07/12 08:39:32;;;;;;;22.10;8.30;;;28.40;97.50;;;;;;7398185;19;19922;-75
2023/07/12 08:41:59;;;;;;;22.13;8.13;;;28.50;97.70;;;;;;7393895;19;20021;-74
2023/07/12 08:44:26;;;;;;;18.55;8.93;;;28.60;97.30;;;;;;7390786;19;19918;-74
2023/07/12 08:46:59;;;;;;;18.23;8.00;;;28.70;96.60;;;;;;7388689;19;19924;-74
2023/07/12 08:49:27;;;;;;;24.23;8.90;;;28.70;96.40;;;;;;7391042;19;19935;-75
2023/07/12 08:51:58;;;;;;;20.98;8.25;;;28.70;96.70;;;;;;7403223;19;19993;-75
2023/07/12 08:54:33;;;;;;;22.08;7.68;;;28.60;96.40;;;;;;7394276;19;19984;-74
2023/07/12 08:57:23;;;;;;;20.85;8.90;;;28.50;96.70;;;;;;7396275;19;19914;-73
2023/07/12 09:00:18;;;;;;;23.05;8.38;;;28.30;97.40;;;;;;7388521;19;20346;-74
2023/07/12 09:02:44;;;;;;;23.63;7.93;;;28.30;97.40;;;;;;7396828;19;20265;-74
2023/07/12 09:05:16;;;;;;;21.90;8.20;;;28.50;97.10;;;;;;7387474;19;19996;-74
2023/07/12 09:07:55;;;;;;;22.42;8.15;;;28.40;96.70;;;;;;7396048;19;19949;-74
2023/07/12 09:10:40;;;;;;;20.55;7.72;;;28.60;96.30;;;;;;7395577;19;19914;-75
2023/07/12 09:13:09;;;;;;;18.27;7.00;;;28.50;96.40;;;;;;7398556;19;19911;-73
2023/07/12 09:15:52;;;;;;;18.42;7.47;;;28.90;95.50;;;;;;7390976;19;19939;-74
2023/07/12 09:18:34;;;;;;;23.88;8.27;;;29.00;94.40;;;;;;7387047;19;19922;-75
2023/07/12 09:21:10;;;;;;;19.90;7.72;;;29.10;94.00;;;;;;7396236;19;19937;-75
2023/07/12 09:23:41;;;;;;;19.80;8.57;;;29.00;94.20;;;;;;7395103;19;20285;-75
2023/07/12 09:26:17;;;;;;;19.83;7.22;;;28.80;94.30;;;;;;7391546;19;19928;-75
2023/07/12 09:28:43;;;;;;;19.67;7.45;;;28.80;94.10;;;;;;7394445;19;19925;-75
2023/07/12 09:31:14;;;;;;;19.17;7.68;;;28.60;94.40;;;;;;7391400;19;19954;-76
2023/07/12 09:33:47;;;;;;;18.55;7.60;;;28.80;93.50;;;;;;7395458;19;19926;-75
2023/07/12 09:36:17;;;;;;;16.05;6.50;;;28.80;93.20;;;;;;7387025;19;19992;-76
2023/07/12 09:38:42;;;;;;;18.30;7.25;;;28.90;92.80;;;;;;7397378;19;19922;-74
2023/07/12 09:41:10;;;;;;;23.60;6.50;;;28.90;92.70;;;;;;7391923;19;19940;-75
2023/07/12 09:43:39;;;;;;;20.25;6.85;;;29.30;92.00;;;;;;7386065;19;19922;-75
2023/07/12 09:46:24;;;;;;;17.20;6.18;;;29.60;91.10;;;;;;7387914;19;19922;-74
2023/07/12 09:49:06;;;;;;;17.10;6.13;;;29.60;90.70;;;;;;7383023;19;19922;-75
2023/07/12 09:51:48;;;;;;;15.55;5.78;;;29.40;90.20;;;;;;7392871;19;19946;-74
2023/07/12 09:54:55;;;;;;;14.45;6.00;;;29.50;90.60;;;;;;7391770;19;19970;-74
2023/07/12 09:57:56;;;;;;;13.18;6.00;;;29.70;90.10;;;;;;7392044;19;20328;-74
2023/07/12 10:00:37;;;;;;;10.88;6.07;;;30.00;89.20;;;;;;7383014;19;19959;-75
2023/07/12 10:03:13;;;;;;;15.55;6.22;;;30.00;87.00;;;;;;7385262;19;20269;-74
2023/07/12 10:05:46;;;;;;;13.13;5.93;;;29.90;86.90;;;;;;7393019;19;19932;-75
2023/07/12 10:08:14;;;;;;;13.85;5.63;;;29.90;87.30;;;;;;7389647;19;20320;-76
2023/07/12 10:10:59;;;;;;;12.38;5.72;;;30.00;86.20;;;;;;7368052;19;19929;-74
2023/07/12 10:13:42;;;;;;;13.38;5.75;;;29.80;85.50;;;;;;7392825;19;19926;-74
2023/07/12 10:16:30;;;;;;;12.88;5.85;;;29.80;86.30;;;;;;7389578;19;19994;-73
2023/07/12 10:19:01;;;;;;;12.60;5.22;;;29.60;86.20;;;;;;7394968;19;19926;-74
2023/07/12 10:21:27;;;;;;;13.48;5.10;;;29.10;86.10;;;;;;7383196;19;19936;-74
2023/07/12 10:24:01;;;;;;;11.52;5.22;;;29.20;86.20;;;;;;7401026;19;20269;-75
2023/07/12 10:26:27;;;;;;;12.82;4.80;;;29.20;85.80;;;;;;7395146;19;20308;-74
2023/07/12 10:29:04;;;;;;;;;;;29.40;85.40;;;;;;7400714;19;19922;-74
2023/07/12 10:31:41;;;;;;;15.43;4.38;;;29.60;83.40;;;;;;7398506;19;19922;-74
2023/07/12 10:34:18;;;;;;;10.73;4.43;;;30.00;81.90;;;;;;7400179;19;20256;-74
2023/07/12 10:36:47;;;;;;;7.45;3.60;;;29.80;81.40;;;;;;7399441;19;19914;-75
2023/07/12 10:39:13;;;;;;;9.32;4.00;;;29.70;81.20;;;;;;7395427;19;19915;-75
2023/07/12 10:41:46;;;;;;;10.98;4.07;;;30.10;80.80;;;;;;7392749;19;19929;-74
2023/07/12 10:44:22;;;;;;;10.02;3.65;;;30.60;79.00;;;;;;7390054;19;19917;-75
2023/07/12 10:46:56;;;;;;;8.70;4.15;;;30.60;78.10;;;;;;7387111;19;20757;-74
2023/07/12 10:49:44;;;;;;;8.90;3.92;;;30.40;78.20;;;;;;7370249;19;19924;-73
2023/07/12 10:52:10;;;;;;;8.05;3.60;;;30.20;78.30;;;;;;7391604;19;19914;-74
2023/07/12 10:54:35;;;;;;;12.98;3.85;;;30.40;78.30;;;;;;7397806;19;20259;-74
2023/07/12 10:57:20;;;;;;;10.50;3.80;;;30.90;77.20;;;;;;7388621;19;20446;-74
2023/07/12 10:59:47;;;;;;;9.75;3.80;;;31.30;76.60;;;;;;7389263;19;19914;-74
2023/07/12 11:02:25;;;;;;;;;;;31.50;75.60;;;;;;7390902;19;20008;-74
2023/07/12 11:04:51;;;;;;;10.15;3.88;;;31.60;75.30;;;;;;7384220;19;19927;-75
2023/07/12 11:07:17;;;;;;;;;;;31.90;74.70;;;;;;7394011;19;19914;-75
2023/07/12 11:09:46;;;;;;;11.38;4.50;;;32.00;74.00;;;;;;7391034;19;19918;-73
2023/07/12 11:12:16;;;;;;;11.15;4.60;;;32.00;74.30;;;;;;7366912;19;19938;-74
2023/07/12 11:14:50;;;;;;;8.55;3.85;;;31.60;74.80;;;;;;7392134;19;19919;-74
2023/07/12 11:17:22;;;;;;;10.98;3.95;;;31.70;74.80;;;;;;7386775;19;19998;-75
2023/07/12 11:20:02;;;;;;;13.70;6.80;;;31.70;74.80;;;;;;7395662;19;19932;-74
2023/07/12 11:22:51;;;;;;;10.27;4.25;;;31.80;74.80;;;;;;7391521;19;19911;-73
2023/07/12 11:25:29;;;;;;;8.80;3.75;;;31.50;75.40;;;;;;7394173;19;19917;-74
2023/07/12 11:27:59;;;;;;;9.65;3.88;;;31.80;74.70;;;;;;7395421;19;19918;-74
2023/07/12 11:30:27;;;;;;;8.73;4.25;;;32.10;74.30;;;;;;7384069;19;19927;-74
2023/07/12 11:33:11;;;;;;;12.10;4.38;;;32.70;73.10;;;;;;7388676;19;19922;-74
2023/07/12 11:36:13;;;;;;;13.32;4.75;;;32.80;72.20;;;;;;7390310;19;19986;-74
2023/07/12 11:38:43;;;;;;;9.93;3.75;;;32.30;73.30;;;;;;7395306;19;19950;-75
2023/07/12 11:41:28;;;;;;;13.88;4.38;;;32.40;73.60;;;;;;7392216;19;20359;-75
2023/07/12 11:44:06;;;;;;;10.43;3.83;;;32.20;73.70;;;;;;7399224;19;19923;-74
2023/07/12 11:46:37;;;;;;;8.05;3.67;;;31.40;75.90;;;;;;7398262;19;19938;-74
2023/07/12 11:49:15;;;;;;;12.43;3.78;;;31.30;77.00;;;;;;7383844;19;19922;-75
2023/07/12 11:51:45;;;;;;;8.63;3.88;;;31.80;75.30;;;;;;7403930;19;19963;-74
2023/07/12 11:54:27;;;;;;;8.73;3.85;;;32.00;74.50;;;;;;7396652;19;20005;-74
2023/07/12 11:56:58;;;;;;;12.75;4.15;;;31.90;74.90;;;;;;7391313;19;19915;-75
2023/07/12 11:59:26;;;;;;;9.95;4.28;;;31.60;76.10;;;;;;7399679;19;19939;-75
2023/07/12 12:01:52;;;;;;;11.48;4.25;;;31.90;74.20;;;;;;7404856;19;19922;-75
2023/07/12 12:04:28;;;;;;;9.30;3.90;;;31.50;76.00;;;;;;7402826;19;20335;-75
2023/07/12 12:07:17;;;;;;;11.25;4.22;;;32.10;74.00;;;;;;7403961;19;19910;-75
2023/07/12 12:09:43;;;;;;;9.18;3.80;;;32.60;72.40;;;;;;7402254;19;19931;-74
2023/07/12 12:12:14;;;;;;;;;;;32.80;71.30;;;;;;7402881;19;19934;-74
2023/07/12 12:14:41;;;;;;;8.85;3.40;;;32.80;70.70;;;;;;7402149;19;20338;-74
2023/07/12 12:17:14;;;;;;;7.32;4.03;;;32.80;69.50;;;;;;7400447;19;19988;-74
2023/07/12 12:19:40;;;;;;;8.73;3.58;;;32.10;71.10;;;;;;7403600;19;19921;-74
2023/07/12 12:22:13;;;;;;;;;;;32.20;71.20;;;;;;7403732;19;19911;-75
2023/07/12 12:24:48;;;;;;;7.78;2.92;;;31.80;72.10;;;;;;7404303;19;19907;-75
2023/07/12 12:27:19;;;;;;;6.82;3.05;;;31.80;73.10;;;;;;7400772;19;20662;-75
2023/07/12 12:29:46;;;;;;;9.93;3.38;;;32.60;71.00;;;;;;7369625;19;19921;-75
2023/07/12 12:32:16;;;;;;;9.02;3.42;;;32.40;71.40;;;;;;7399448;19;19911;-75
2023/07/12 12:34:49;;;;;;;8.68;3.55;;;32.00;72.40;;;;;;7402309;19;20253;-75
2023/07/12 12:37:19;;;;;;;9.07;3.08;;;32.20;71.10;;;;;;7400538;19;19919;-73
2023/07/12 12:40:01;;;;;;;6.47;2.67;;;32.60;69.30;;;;;;7401050;19;20340;-75
2023/07/12 12:42:28;;;;;;;8.07;3.55;;;32.60;68.40;;;;;;7402223;19;19923;-75
2023/07/12 12:44:55;;;;;;;8.95;3.33;;;32.70;67.70;;;;;;7402074;19;19914;-76
2023/07/12 12:47:28;;;;;;;7.38;3.88;;;32.00;68.70;;;;;;7368089;19;20803;-75
2023/07/12 12:49:54;;;;;;;6.70;3.20;;;31.40;71.00;;;;;;7400971;19;19911;-74